Weather at El Paraiso Airport

Public forecast

Using degrees Celsius for public forecast. Weather courtesy of forecast.io.

Closest aviation weather report (METAR) to El Paraiso Airport

Report is more than 2 hours old.

Closest report is Santiago Perez Airport, 78.9 nm (146.1 km) SSW.

2024/05/19 02:00 (retrieved 6 hours ago)

SKUC 190200Z 00000KT 9999 SCT018 25/25 Q1014

Closest aviation forecast (TAF) to El Paraiso Airport

Forecast is more than 12 hours old.

Closest forecast is San Antonio Del Tachira Airport, 126.2 nm (233.8 km) WSW.

2024/05/18 12:09 (retrieved 20 hours ago)

TAF SVSA 181000Z 1812/1912 00000KT 7000 TSRA OVC013CB TX32/1818Z TN20/1908Z TEMPO 1813/1817 VRB06KT 9000 TSDZ BKN013CB